createdAt,value
2019-03-29T00:01:36.841Z,63.10
2019-03-29T00:08:21.964Z,63.70
2019-03-29T00:15:08.101Z,64.70
2019-03-29T00:21:53.171Z,66.10
2019-03-29T00:28:38.047Z,67.90
2019-03-29T00:35:22.979Z,69.00
2019-03-29T00:42:07.851Z,70.90
2019-03-29T00:48:52.790Z,71.00
2019-03-29T00:55:37.639Z,71.30
2019-03-29T01:02:22.511Z,72.50
2019-03-29T01:09:07.921Z,73.60
2019-03-29T01:15:53.266Z,75.00
2019-03-29T01:22:38.220Z,73.90
2019-03-29T01:29:23.355Z,73.10
2019-03-29T01:36:08.215Z,71.70
2019-03-29T01:42:53.066Z,71.10
2019-03-29T01:49:38.010Z,71.10
2019-03-29T01:56:23.183Z,71.90
2019-03-29T02:03:08.103Z,73.20
2019-03-29T02:09:53.048Z,74.10
2019-03-29T02:16:38.178Z,75.10
2019-03-29T02:23:23.098Z,76.50
2019-03-29T02:30:09.520Z,77.60
2019-03-29T02:36:54.614Z,77.80
2019-03-29T02:43:39.648Z,78.90
2019-03-29T02:50:24.584Z,79.30
2019-03-29T02:57:09.669Z,79.10
2019-03-29T03:03:54.632Z,80.70
2019-03-29T03:10:39.499Z,80.80
2019-03-29T03:17:24.371Z,80.90
2019-03-29T03:24:09.338Z,81.00
2019-03-29T03:30:54.368Z,80.70
2019-03-29T03:37:39.387Z,81.00
2019-03-29T03:44:24.427Z,81.00
2019-03-29T03:51:10.439Z,81.30
2019-03-29T03:57:57.675Z,81.70
2019-03-29T04:04:42.280Z,83.50
2019-03-29T04:11:27.143Z,83.50
2019-03-29T04:18:15.865Z,83.70
2019-03-29T04:24:59.144Z,83.70
2019-03-29T04:31:44.186Z,84.20
2019-03-29T04:38:29.055Z,87.20
2019-03-29T04:45:14.148Z,87.70
2019-03-29T04:51:59.023Z,89.70
2019-03-29T04:58:43.893Z,89.60
2019-03-29T05:05:28.898Z,88.90
2019-03-29T05:12:13.778Z,88.20
2019-03-29T05:18:58.807Z,88.30
2019-03-29T05:25:43.688Z,87.70
2019-03-29T05:32:28.940Z,87.10
2019-03-29T05:39:14.335Z,86.20
2019-03-29T05:46:01.284Z,84.90
2019-03-29T05:52:46.716Z,84.10
2019-03-29T05:59:31.730Z,83.30
2019-03-29T06:06:16.597Z,81.60
2019-03-29T06:13:01.539Z,79.10
2019-03-29T06:19:46.503Z,76.70
2019-03-29T06:26:31.376Z,57.60
2019-03-29T06:33:16.244Z,39.40
2019-03-29T06:40:01.301Z,32.20
2019-03-29T06:46:47.245Z,27.60
2019-03-29T06:53:32.263Z,24.90
2019-03-29T07:00:17.414Z,22.90
2019-03-29T07:07:02.367Z,22.40
2019-03-29T07:13:57.267Z,21.80
2019-03-29T07:20:34.489Z,20.60
2019-03-29T07:27:19.364Z,21.10
2019-03-29T07:34:04.385Z,22.00
2019-03-29T07:40:49.255Z,22.10
2019-03-29T07:47:35.267Z,20.60
2019-03-29T07:54:20.224Z,20.90
2019-03-29T08:01:05.363Z,22.00
2019-03-29T08:07:50.230Z,20.40
2019-03-29T08:14:35.102Z,20.20
2019-03-29T08:21:19.971Z,19.90
2019-03-29T08:28:04.979Z,20.20
2019-03-29T08:34:49.922Z,22.40
2019-03-29T08:41:34.815Z,22.10
2019-03-29T08:48:19.686Z,21.90
2019-03-29T08:55:06.171Z,19.90
2019-03-29T09:01:51.371Z,19.90
2019-03-29T09:08:36.307Z,20.40
2019-03-29T09:15:21.171Z,21.10
2019-03-29T09:22:06.034Z,20.20
2019-03-29T09:28:50.895Z,20.30
2019-03-29T09:35:36.231Z,20.60
2019-03-29T09:42:29.083Z,20.00
2019-03-29T09:49:08.496Z,21.90
2019-03-29T09:55:53.666Z,22.30
2019-03-29T10:02:38.671Z,20.00
2019-03-29T10:09:23.535Z,21.00
2019-03-29T10:16:08.471Z,21.20
2019-03-29T10:22:53.396Z,22.40
2019-03-29T10:29:38.330Z,24.10
2019-03-29T10:36:23.192Z,22.00
2019-03-29T10:43:08.120Z,21.40
2019-03-29T10:49:52.970Z,21.60
2019-03-29T10:56:37.898Z,22.90
2019-03-29T11:03:23.279Z,25.30
2019-03-29T11:10:10.215Z,25.90
2019-03-29T11:16:55.165Z,27.30
2019-03-29T11:23:40.150Z,27.90
2019-03-29T11:30:25.070Z,28.30
2019-03-29T11:37:09.931Z,28.20
2019-03-29T11:43:54.898Z,28.40
2019-03-29T11:50:40.027Z,28.20
2019-03-29T11:57:25.270Z,28.00
2019-03-29T12:04:10.270Z,26.40
2019-03-29T12:10:55.285Z,26.20
2019-03-29T12:17:40.362Z,26.70
2019-03-29T12:24:25.495Z,26.60
2019-03-29T12:31:10.611Z,26.70
2019-03-29T12:37:55.535Z,27.20
2019-03-29T12:44:40.577Z,26.90
2019-03-29T12:51:26.376Z,26.70
2019-03-29T12:58:11.241Z,26.90
2019-03-29T13:04:56.172Z,26.50
2019-03-29T13:11:41.174Z,26.40
2019-03-29T13:18:26.038Z,25.80
2019-03-29T13:25:11.104Z,26.50
2019-03-29T13:31:56.044Z,26.40
2019-03-29T13:38:41.044Z,26.00
2019-03-29T13:45:27.816Z,26.50
2019-03-29T13:52:12.487Z,26.70
2019-03-29T13:58:57.338Z,26.60
2019-03-29T14:05:42.262Z,26.50
2019-03-29T14:12:27.127Z,26.40
2019-03-29T14:19:11.989Z,25.80
2019-03-29T14:25:56.847Z,26.00
2019-03-29T14:32:41.706Z,26.20
2019-03-29T14:39:26.634Z,26.60
2019-03-29T14:46:11.571Z,26.40
2019-03-29T14:52:56.442Z,26.40
2019-03-29T14:59:41.466Z,26.20
2019-03-29T15:06:26.462Z,25.90
2019-03-29T15:13:11.387Z,26.20
2019-03-29T15:19:56.252Z,25.90
2019-03-29T15:26:41.187Z,26.10
2019-03-29T15:33:26.051Z,26.50
2019-03-29T15:40:11.084Z,26.90
2019-03-29T15:46:56.018Z,26.50
2019-03-29T15:53:40.883Z,26.00
2019-03-29T16:00:25.743Z,26.70
2019-03-29T16:07:10.842Z,25.90
2019-03-29T16:13:55.770Z,26.30
2019-03-29T16:20:40.630Z,26.70
2019-03-29T16:27:25.556Z,26.80
2019-03-29T16:34:10.531Z,27.10
2019-03-29T16:40:55.829Z,27.10
2019-03-29T16:47:40.799Z,27.30
2019-03-29T16:54:25.748Z,27.50
2019-03-29T17:01:11.790Z,27.80
2019-03-29T17:07:56.683Z,27.90
2019-03-29T17:14:41.543Z,27.70
2019-03-29T17:21:26.477Z,28.00
2019-03-29T17:28:11.337Z,28.20
2019-03-29T17:34:56.392Z,28.60
2019-03-29T17:41:41.343Z,28.60
2019-03-29T17:48:26.265Z,29.10
2019-03-29T17:55:11.255Z,29.80
2019-03-29T18:02:08.810Z,30.60
2019-03-29T18:08:42.818Z,31.80
2019-03-29T18:15:27.751Z,32.00
2019-03-29T18:22:12.739Z,32.20
2019-03-29T18:28:57.612Z,33.00
2019-03-29T18:35:42.470Z,33.70
2019-03-29T18:42:27.334Z,34.50
2019-03-29T18:49:12.596Z,34.70
2019-03-29T18:55:57.458Z,35.40
2019-03-29T19:02:43.399Z,35.50
2019-03-29T19:09:31.531Z,35.20
2019-03-29T19:16:14.821Z,35.00
2019-03-29T19:23:00.023Z,35.40
2019-03-29T19:29:44.891Z,36.20
2019-03-29T19:36:29.826Z,36.90
2019-03-29T19:43:14.695Z,37.00
2019-03-29T19:49:59.555Z,38.30
2019-03-29T19:56:44.415Z,39.90
2019-03-29T20:03:29.313Z,43.20
2019-03-29T20:10:14.287Z,43.80
2019-03-29T20:16:59.225Z,45.60
2019-03-29T20:23:45.307Z,45.80
2019-03-29T20:30:30.316Z,48.30
2019-03-29T20:37:15.695Z,50.50
2019-03-29T20:44:00.718Z,51.50
2019-03-29T20:50:45.821Z,52.10
2019-03-29T20:57:30.804Z,50.80
2019-03-29T21:04:15.941Z,51.50
2019-03-29T21:11:01.381Z,52.40
2019-03-29T21:17:56.778Z,53.30
2019-03-29T21:24:34.097Z,54.00
2019-03-29T21:31:19.077Z,55.00
2019-03-29T21:38:04.435Z,56.80
2019-03-29T21:44:50.444Z,56.60
2019-03-29T21:51:35.294Z,57.90
2019-03-29T21:58:20.162Z,57.60
2019-03-29T22:05:05.880Z,61.50
2019-03-29T22:11:50.879Z,60.60
2019-03-29T22:18:38.029Z,60.60
2019-03-29T22:25:22.340Z,60.80
2019-03-29T22:32:07.239Z,62.20
2019-03-29T22:38:53.054Z,63.20
2019-03-29T22:45:38.276Z,63.40
2019-03-29T22:52:23.295Z,63.60
2019-03-29T22:59:08.742Z,64.50
2019-03-29T23:05:53.929Z,64.20
2019-03-29T23:12:39.020Z,64.40
2019-03-29T23:19:23.894Z,65.50
2019-03-29T23:26:09.217Z,66.00
2019-03-29T23:32:54.055Z,65.70
2019-03-29T23:39:38.986Z,69.00
2019-03-29T23:46:23.990Z,68.50
2019-03-29T23:53:08.979Z,69.40
2019-03-29T23:59:55.186Z,70.00
